createdAt,value
2022-10-04T00:00:27.387Z,2.53
2022-10-04T00:03:01.943Z,2.00
2022-10-04T00:05:31.121Z,2.08
2022-10-04T00:08:02.848Z,1.70
2022-10-04T00:10:33.627Z,1.92
2022-10-04T00:13:08.000Z,1.50
2022-10-04T00:15:40.070Z,1.40
2022-10-04T00:18:28.602Z,2.20
2022-10-04T00:20:58.700Z,2.00
2022-10-04T00:23:25.553Z,2.00
2022-10-04T00:25:57.334Z,1.83
2022-10-04T00:28:44.112Z,1.90
2022-10-04T00:31:19.201Z,1.40
2022-10-04T00:33:51.602Z,2.22
2022-10-04T00:36:24.207Z,2.35
2022-10-04T00:39:12.298Z,2.00
2022-10-04T00:41:38.922Z,1.77
2022-10-04T00:44:10.866Z,2.00
2022-10-04T00:46:41.527Z,1.80
2022-10-04T00:49:12.337Z,1.95
2022-10-04T00:51:47.580Z,2.20
2022-10-04T00:54:27.326Z,2.42
2022-10-04T00:56:57.903Z,2.47
2022-10-04T00:59:33.372Z,2.55
2022-10-04T01:02:08.359Z,2.90
2022-10-04T01:04:43.725Z,2.78
2022-10-04T01:07:14.788Z,2.97
2022-10-04T01:09:50.631Z,3.20
2022-10-04T01:12:32.484Z,3.05
2022-10-04T01:15:02.169Z,2.97
2022-10-04T01:17:28.846Z,2.65
2022-10-04T01:19:56.195Z,2.45
2022-10-04T01:22:35.396Z,2.53
2022-10-04T01:25:02.734Z,2.50
2022-10-04T01:27:41.167Z,2.05
2022-10-04T01:30:12.368Z,2.58
2022-10-04T01:32:40.039Z,2.28
2022-10-04T01:35:09.059Z,1.98
2022-10-04T01:37:36.634Z,2.15
2022-10-04T01:40:03.787Z,2.25
2022-10-04T01:42:45.410Z,2.78
2022-10-04T01:45:19.580Z,2.70
2022-10-04T01:47:57.494Z,2.45
2022-10-04T01:50:41.998Z,2.50
2022-10-04T01:53:11.482Z,2.58
2022-10-04T01:55:41.808Z,2.33
2022-10-04T01:58:14.631Z,2.33
2022-10-04T02:00:52.272Z,2.70
2022-10-04T02:03:42.942Z,2.30
2022-10-04T02:06:11.541Z,2.72
2022-10-04T02:08:45.875Z,2.15
2022-10-04T02:11:20.259Z,1.95
2022-10-04T02:13:50.229Z,2.13
2022-10-04T02:16:18.367Z,2.00
2022-10-04T02:18:45.783Z,2.15
2022-10-04T02:21:15.309Z,2.92
2022-10-04T02:23:42.483Z,2.17
2022-10-04T02:26:11.555Z,1.90
2022-10-04T02:28:40.326Z,2.47
2022-10-04T02:31:27.129Z,2.00
2022-10-04T02:33:58.307Z,1.80
2022-10-04T02:36:28.654Z,2.38
2022-10-04T02:39:01.185Z,1.90
2022-10-04T02:41:37.864Z,1.90
2022-10-04T02:44:05.159Z,2.30
2022-10-04T02:46:42.506Z,2.10
2022-10-04T02:49:28.503Z,1.80
2022-10-04T02:52:03.853Z,1.88
2022-10-04T02:54:45.239Z,2.25
2022-10-04T02:57:20.837Z,2.55
2022-10-04T02:59:48.616Z,2.30
2022-10-04T03:02:30.811Z,2.47
2022-10-04T03:05:10.074Z,2.17
2022-10-04T03:07:38.323Z,2.15
2022-10-04T03:10:13.590Z,2.25
2022-10-04T03:12:41.083Z,2.30
2022-10-04T03:15:12.445Z,2.10
2022-10-04T03:17:42.419Z,2.10
2022-10-04T03:20:14.609Z,3.10
2022-10-04T03:22:47.006Z,2.63
2022-10-04T03:25:35.182Z,2.30
2022-10-04T03:28:02.893Z,2.42
2022-10-04T03:30:32.371Z,2.42
2022-10-04T03:33:00.014Z,2.10
2022-10-04T03:35:35.021Z,2.10
2022-10-04T03:38:06.891Z,2.47
2022-10-04T03:40:34.607Z,2.60
2022-10-04T03:43:04.152Z,2.20
2022-10-04T03:45:33.289Z,2.50
2022-10-04T03:48:06.705Z,2.15
2022-10-04T03:50:38.263Z,2.92
2022-10-04T03:53:37.362Z,2.90
2022-10-04T03:56:12.574Z,2.80
2022-10-04T03:58:39.863Z,2.33
2022-10-04T04:01:25.366Z,2.30
2022-10-04T04:04:01.101Z,2.45
2022-10-04T04:06:47.281Z,2.30
2022-10-04T04:09:22.349Z,2.15
2022-10-04T04:11:50.893Z,2.72
2022-10-04T04:14:26.805Z,2.58
2022-10-04T04:17:14.896Z,3.55
2022-10-04T04:19:42.393Z,2.70
2022-10-04T04:22:16.398Z,2.70
2022-10-04T04:24:44.201Z,2.63
2022-10-04T04:27:12.086Z,2.60
2022-10-04T04:29:50.746Z,2.50
2022-10-04T04:32:24.290Z,2.25
2022-10-04T04:34:57.093Z,2.03
2022-10-04T04:37:24.284Z,1.98
2022-10-04T04:39:54.828Z,1.98
2022-10-04T04:42:28.373Z,2.10
2022-10-04T04:45:01.790Z,2.05
2022-10-04T04:47:42.329Z,2.67
2022-10-04T04:50:16.148Z,2.70
2022-10-04T04:53:20.763Z,4.60
2022-10-04T04:56:04.546Z,4.85
2022-10-04T04:58:41.622Z,4.00
2022-10-04T05:01:22.417Z,4.25
2022-10-04T05:04:04.463Z,5.00
2022-10-04T05:06:32.723Z,4.82
2022-10-04T05:08:59.658Z,4.50
2022-10-04T05:11:32.944Z,4.45
2022-10-04T05:14:15.896Z,3.90
2022-10-04T05:16:52.949Z,3.55
2022-10-04T05:19:22.561Z,4.03
2022-10-04T05:21:51.929Z,4.60
2022-10-04T05:24:31.760Z,5.03
2022-10-04T05:27:30.594Z,4.63
2022-10-04T05:30:16.375Z,4.40
2022-10-04T05:33:05.520Z,4.95
2022-10-04T05:35:51.291Z,4.75
2022-10-04T05:38:45.188Z,4.70
2022-10-04T05:41:31.413Z,5.55
2022-10-04T05:44:01.886Z,6.57
2022-10-04T05:46:33.266Z,4.88
2022-10-04T05:49:08.483Z,4.70
2022-10-04T05:51:49.235Z,4.45
2022-10-04T05:54:22.191Z,4.22
2022-10-04T05:57:24.521Z,4.80
2022-10-04T06:00:13.154Z,4.78
2022-10-04T06:03:19.524Z,5.00
2022-10-04T06:06:24.726Z,5.13
2022-10-04T06:09:11.733Z,6.55
2022-10-04T06:11:53.527Z,6.57
2022-10-04T06:14:33.363Z,6.90
2022-10-04T06:17:26.253Z,6.57
2022-10-04T06:20:11.514Z,6.13
2022-10-04T06:22:47.142Z,6.10
2022-10-04T06:25:38.768Z,6.20
2022-10-04T06:28:18.560Z,6.28
2022-10-04T06:30:57.380Z,5.97
2022-10-04T06:33:51.435Z,5.40
2022-10-04T06:36:40.268Z,5.85
2022-10-04T06:39:28.175Z,5.25
2022-10-04T06:42:16.734Z,4.88
2022-10-04T06:45:18.063Z,4.65
2022-10-04T06:48:15.202Z,5.03
2022-10-04T06:51:06.177Z,4.82
2022-10-04T06:54:14.299Z,5.82
2022-10-04T06:56:53.530Z,4.82
2022-10-04T06:59:45.107Z,4.50
2022-10-04T07:02:28.714Z,4.85
2022-10-04T07:05:22.482Z,4.75
2022-10-04T07:08:06.612Z,5.32
2022-10-04T07:10:39.724Z,5.05
2022-10-04T07:13:09.717Z,4.63
2022-10-04T07:15:55.399Z,5.10
2022-10-04T07:18:32.907Z,4.50
2022-10-04T07:21:12.827Z,4.93
2022-10-04T07:23:53.348Z,4.35
2022-10-04T07:26:27.048Z,4.65
2022-10-04T07:29:16.842Z,4.70
2022-10-04T07:31:46.195Z,4.30
2022-10-04T07:34:30.679Z,4.40
2022-10-04T07:36:59.882Z,4.53
2022-10-04T07:39:32.167Z,4.68
2022-10-04T07:42:13.692Z,4.40
2022-10-04T07:44:48.958Z,4.18
2022-10-04T07:47:25.734Z,4.05
2022-10-04T07:49:54.278Z,4.45
2022-10-04T07:52:45.008Z,4.57
2022-10-04T07:55:44.556Z,3.88
2022-10-04T07:58:36.651Z,3.88
2022-10-04T08:01:32.819Z,3.67
2022-10-04T08:03:59.571Z,4.03
2022-10-04T08:06:27.719Z,4.05
2022-10-04T08:09:23.487Z,4.32
2022-10-04T08:11:58.791Z,4.50
2022-10-04T08:14:52.517Z,3.83
2022-10-04T08:17:57.242Z,4.05
2022-10-04T08:20:48.423Z,3.92
2022-10-04T08:23:47.233Z,3.60
2022-10-04T08:26:29.077Z,3.38
2022-10-04T08:29:20.222Z,3.85
2022-10-04T08:32:14.287Z,2.97
2022-10-04T08:35:10.331Z,2.90
2022-10-04T08:38:10.163Z,2.90
2022-10-04T08:40:48.611Z,3.58
2022-10-04T08:43:15.758Z,3.08
2022-10-04T08:46:30.723Z,3.28
2022-10-04T08:49:12.404Z,2.90
2022-10-04T08:51:57.925Z,3.20
2022-10-04T08:55:02.250Z,2.80
2022-10-04T08:58:02.867Z,2.97
2022-10-04T09:00:30.361Z,3.33
2022-10-04T09:03:27.387Z,2.70
2022-10-04T09:05:58.973Z,3.47
2022-10-04T09:08:28.711Z,3.08
2022-10-04T09:11:33.017Z,2.65
2022-10-04T09:14:15.763Z,2.42
2022-10-04T09:16:47.788Z,2.65
2022-10-04T09:19:37.658Z,3.45
2022-10-04T09:22:19.924Z,2.75
2022-10-04T09:25:03.656Z,3.05
2022-10-04T09:27:54.066Z,4.20
2022-10-04T09:30:31.189Z,2.67
2022-10-04T09:32:59.395Z,3.38
2022-10-04T09:35:36.833Z,2.92
2022-10-04T09:38:10.083Z,2.70
2022-10-04T09:41:10.741Z,3.00
2022-10-04T09:43:43.457Z,2.70
2022-10-04T09:47:04.465Z,2.83
2022-10-04T09:49:39.983Z,3.10
2022-10-04T09:52:40.044Z,2.95
2022-10-04T09:55:27.684Z,2.78
2022-10-04T09:58:09.199Z,3.20
2022-10-04T10:00:39.981Z,2.50
2022-10-04T10:03:41.566Z,3.00
2022-10-04T10:06:26.473Z,2.92
2022-10-04T10:08:56.035Z,2.30
2022-10-04T10:12:22.540Z,2.60
2022-10-04T10:15:10.566Z,3.30
2022-10-04T10:17:40.163Z,2.60
2022-10-04T10:20:44.341Z,2.50
2022-10-04T10:23:54.970Z,2.50
2022-10-04T10:26:35.810Z,2.70
2022-10-04T10:29:14.676Z,2.90
2022-10-04T10:31:51.293Z,2.65
2022-10-04T10:34:52.353Z,2.40
2022-10-04T10:37:43.796Z,2.40
2022-10-04T10:40:45.360Z,2.63
2022-10-04T10:43:21.109Z,2.80
2022-10-04T10:45:52.999Z,2.60
2022-10-04T10:48:41.823Z,2.47
2022-10-04T10:51:20.574Z,2.58
2022-10-04T10:54:21.626Z,2.42
2022-10-04T10:57:12.820Z,2.72
2022-10-04T10:59:39.876Z,2.63
2022-10-04T11:02:49.215Z,2.30
2022-10-04T11:05:22.506Z,2.38
2022-10-04T11:08:29.850Z,2.58
2022-10-04T11:11:19.825Z,2.60
2022-10-04T11:13:55.647Z,2.35
2022-10-04T11:16:35.055Z,2.55
2022-10-04T11:19:07.735Z,2.42
2022-10-04T11:22:08.523Z,2.70
2022-10-04T11:25:04.694Z,2.67
2022-10-04T11:27:57.228Z,2.47
2022-10-04T11:30:39.970Z,2.78
2022-10-04T11:33:28.694Z,2.80
2022-10-04T11:36:23.526Z,2.78
2022-10-04T11:39:12.163Z,2.90
2022-10-04T11:42:02.920Z,2.55
2022-10-04T11:44:55.325Z,2.67
2022-10-04T11:50:23.724Z,2.20
2022-10-04T11:53:03.246Z,2.60
2022-10-04T11:55:54.126Z,2.42
2022-10-04T11:58:53.159Z,2.40
2022-10-04T12:01:30.478Z,2.30
2022-10-04T12:04:15.534Z,2.17
2022-10-04T12:07:26.592Z,2.22
2022-10-04T12:10:15.140Z,2.40
2022-10-04T12:13:06.323Z,2.53
2022-10-04T12:15:58.196Z,2.63
2022-10-04T12:18:46.858Z,2.30
2022-10-04T12:21:22.460Z,2.53
2022-10-04T12:24:03.516Z,2.60
2022-10-04T12:27:05.744Z,2.45
2022-10-04T12:30:00.693Z,2.40
2022-10-04T12:32:34.494Z,2.47
2022-10-04T12:35:08.330Z,2.50
2022-10-04T12:37:52.269Z,2.40
2022-10-04T12:40:29.558Z,2.60
2022-10-04T12:43:14.898Z,2.50
2022-10-04T12:45:57.182Z,2.47
2022-10-04T12:49:01.669Z,2.20
2022-10-04T12:51:42.759Z,2.70
2022-10-04T12:54:28.468Z,2.13
2022-10-04T12:57:20.192Z,2.72
2022-10-04T13:00:20.581Z,2.70
2022-10-04T13:02:58.640Z,3.00
2022-10-04T13:06:02.910Z,2.40
2022-10-04T13:08:48.359Z,2.92
2022-10-04T13:12:00.618Z,3.13
2022-10-04T13:14:42.675Z,2.80
2022-10-04T13:18:02.156Z,3.05
2022-10-04T13:20:54.994Z,2.63
2022-10-04T13:23:40.044Z,2.70
2022-10-04T13:26:25.482Z,2.47
2022-10-04T13:29:17.203Z,2.42
2022-10-04T13:31:44.054Z,2.42
2022-10-04T13:34:36.950Z,2.65
2022-10-04T13:37:40.854Z,2.83
2022-10-04T13:40:28.854Z,2.40
2022-10-04T13:43:06.533Z,2.70
2022-10-04T13:46:12.414Z,2.60
2022-10-04T13:48:44.951Z,2.35
2022-10-04T13:51:19.702Z,2.35
2022-10-04T13:54:11.131Z,2.30
2022-10-04T13:57:13.647Z,2.23
2022-10-04T14:02:45.192Z,1.65
2022-10-04T14:05:23.159Z,2.20
2022-10-04T14:08:29.051Z,2.00
2022-10-04T14:11:01.782Z,1.90
2022-10-04T14:13:48.956Z,2.22
2022-10-04T14:16:37.300Z,2.35
2022-10-04T14:19:22.725Z,2.40
2022-10-04T14:22:11.885Z,1.80
2022-10-04T14:25:05.396Z,2.00
2022-10-04T14:27:53.361Z,1.80
2022-10-04T14:30:41.338Z,1.95
2022-10-04T14:33:46.329Z,1.73
2022-10-04T14:36:30.435Z,1.50
2022-10-04T14:39:17.171Z,1.83
2022-10-04T14:42:16.871Z,2.05
2022-10-04T14:45:04.549Z,1.70
2022-10-04T14:47:58.955Z,1.92
2022-10-04T14:50:32.870Z,2.33
2022-10-04T14:53:37.062Z,1.98
2022-10-04T14:56:33.407Z,2.38
2022-10-04T14:59:16.973Z,2.53
2022-10-04T15:02:04.939Z,2.35
2022-10-04T15:04:56.818Z,2.42
2022-10-04T15:07:32.682Z,2.75
2022-10-04T15:10:13.975Z,1.98
2022-10-04T15:13:11.090Z,2.30
2022-10-04T15:16:18.810Z,2.65
2022-10-04T15:18:48.258Z,2.55
2022-10-04T15:21:42.677Z,2.45
2022-10-04T15:24:18.318Z,2.58
2022-10-04T15:27:07.427Z,2.85
2022-10-04T15:29:51.708Z,2.78
2022-10-04T15:35:13.353Z,2.42
2022-10-04T15:38:29.180Z,2.45
2022-10-04T15:41:18.741Z,2.78
2022-10-04T15:44:05.924Z,2.55
2022-10-04T15:47:08.594Z,2.70
2022-10-04T15:52:43.204Z,2.45
2022-10-04T15:55:37.912Z,2.97
2022-10-04T15:58:52.696Z,2.70
2022-10-04T16:01:41.740Z,2.72
2022-10-04T16:04:48.068Z,2.70
2022-10-04T16:07:48.605Z,3.40
2022-10-04T16:10:48.288Z,3.47
2022-10-04T16:13:33.507Z,3.55
2022-10-04T16:16:39.870Z,3.40
2022-10-04T16:19:48.057Z,4.10
2022-10-04T16:22:18.500Z,4.95
2022-10-04T16:24:53.205Z,4.10
2022-10-04T16:27:39.401Z,6.30
2022-10-04T16:30:26.462Z,3.80
2022-10-04T16:32:56.482Z,5.38
2022-10-04T16:35:31.154Z,3.97
2022-10-04T16:38:21.140Z,3.88
2022-10-04T16:40:50.742Z,3.65
2022-10-04T16:43:17.345Z,5.15
2022-10-04T16:46:02.886Z,7.22
2022-10-04T16:48:38.915Z,6.47
2022-10-04T16:51:05.657Z,6.45
2022-10-04T16:53:43.937Z,6.60
2022-10-04T16:56:26.795Z,5.90
2022-10-04T16:59:05.776Z,4.88
2022-10-04T17:01:35.434Z,4.50
2022-10-04T17:04:27.261Z,5.10
2022-10-04T17:07:03.159Z,5.80
2022-10-04T17:09:39.390Z,8.15
2022-10-04T17:12:23.244Z,5.95
2022-10-04T17:15:03.755Z,5.88
2022-10-04T17:17:44.191Z,5.43
2022-10-04T17:20:15.725Z,5.32
2022-10-04T17:22:57.611Z,5.15
2022-10-04T17:25:27.927Z,5.15
2022-10-04T17:28:03.006Z,4.90
2022-10-04T17:30:51.157Z,4.68
2022-10-04T17:33:42.334Z,4.10
2022-10-04T17:36:08.918Z,4.63
2022-10-04T17:38:54.021Z,4.68
2022-10-04T17:41:41.998Z,5.88
2022-10-04T17:44:37.027Z,5.70
2022-10-04T17:47:21.428Z,6.88
2022-10-04T17:50:19.540Z,5.80
2022-10-04T17:53:30.022Z,6.22
2022-10-04T17:55:58.722Z,5.82
2022-10-04T17:58:44.956Z,5.85
2022-10-04T18:01:39.031Z,6.03
2022-10-04T18:04:17.710Z,5.65
2022-10-04T18:06:50.515Z,5.63
2022-10-04T18:09:41.015Z,4.85
2022-10-04T18:12:26.682Z,4.22
2022-10-04T18:14:59.398Z,3.55
2022-10-04T18:17:33.818Z,3.40
2022-10-04T18:20:27.645Z,3.97
2022-10-04T18:23:14.527Z,4.90
2022-10-04T18:25:42.057Z,6.15
2022-10-04T18:28:08.809Z,5.72
2022-10-04T18:30:53.923Z,6.13
2022-10-04T18:33:29.667Z,5.88
2022-10-04T18:36:16.867Z,5.30
2022-10-04T18:38:46.341Z,5.85
2022-10-04T18:41:17.858Z,6.00
2022-10-04T18:43:59.905Z,6.82
2022-10-04T18:46:38.450Z,8.02
2022-10-04T18:49:15.400Z,7.50
2022-10-04T18:51:49.436Z,5.93
2022-10-04T18:54:16.002Z,5.78
2022-10-04T18:56:54.116Z,5.05
2022-10-04T18:59:42.330Z,6.05
2022-10-04T19:02:25.775Z,6.53
2022-10-04T19:04:58.622Z,5.43
2022-10-04T19:07:40.609Z,6.25
2022-10-04T19:10:24.384Z,5.38
2022-10-04T19:13:00.378Z,5.00
2022-10-04T19:15:39.064Z,4.28
2022-10-04T19:18:40.231Z,4.10
2022-10-04T19:21:11.459Z,4.40
2022-10-04T19:23:51.379Z,3.77
2022-10-04T19:26:39.755Z,4.30
2022-10-04T19:29:41.171Z,4.13
2022-10-04T19:32:34.706Z,4.22
2022-10-04T19:35:38.812Z,4.57
2022-10-04T19:38:34.492Z,5.20
2022-10-04T19:41:38.145Z,5.60
2022-10-04T19:44:26.015Z,5.18
2022-10-04T19:47:00.680Z,5.20
2022-10-04T19:49:49.640Z,5.82
2022-10-04T19:52:19.092Z,6.60
2022-10-04T19:54:47.687Z,6.47
2022-10-04T19:57:15.189Z,6.30
2022-10-04T19:59:46.047Z,6.55
2022-10-04T20:02:16.797Z,6.90
2022-10-04T20:04:48.649Z,6.50
2022-10-04T20:07:23.774Z,6.50
2022-10-04T20:10:10.271Z,6.88
2022-10-04T20:12:40.589Z,8.77
2022-10-04T20:15:28.398Z,8.65
2022-10-04T20:17:56.416Z,8.38
2022-10-04T20:20:55.230Z,8.68
2022-10-04T20:23:47.855Z,8.98
2022-10-04T20:26:54.823Z,10.30
2022-10-04T20:29:37.458Z,10.18
2022-10-04T20:32:04.797Z,11.40
2022-10-04T20:34:37.620Z,10.32
2022-10-04T20:37:09.299Z,10.43
2022-10-04T20:39:41.967Z,17.83
2022-10-04T20:42:20.031Z,6.93
2022-10-04T20:44:56.335Z,5.90
2022-10-04T20:47:37.223Z,5.38
2022-10-04T20:50:14.467Z,5.93
2022-10-04T20:52:50.353Z,6.57
2022-10-04T20:55:21.647Z,6.43
2022-10-04T20:57:48.314Z,7.53
2022-10-04T21:00:23.023Z,6.88
2022-10-04T21:02:50.256Z,6.40
2022-10-04T21:05:27.442Z,6.32
2022-10-04T21:08:23.677Z,6.18
2022-10-04T21:11:13.156Z,6.50
2022-10-04T21:13:58.575Z,6.00
2022-10-04T21:16:43.912Z,6.28
2022-10-04T21:19:32.831Z,5.97
2022-10-04T21:22:05.009Z,5.43
2022-10-04T21:24:40.991Z,5.47
2022-10-04T21:27:10.729Z,5.63
2022-10-04T21:29:38.883Z,6.10
2022-10-04T21:32:06.020Z,6.38
2022-10-04T21:34:52.465Z,6.65
2022-10-04T21:37:20.032Z,6.20
2022-10-04T21:39:46.750Z,6.20
2022-10-04T21:42:13.417Z,5.93
2022-10-04T21:44:40.079Z,6.18
2022-10-04T21:47:06.746Z,6.30
2022-10-04T21:49:33.449Z,6.22
2022-10-04T21:52:00.242Z,6.22
2022-10-04T21:54:26.926Z,6.05
2022-10-04T21:56:54.068Z,7.13
2022-10-04T21:59:21.078Z,6.43
2022-10-04T22:01:47.803Z,5.60
2022-10-04T22:04:14.660Z,6.18
2022-10-04T22:06:41.777Z,5.60
2022-10-04T22:09:09.455Z,6.38
2022-10-04T22:11:37.275Z,6.43
2022-10-04T22:14:04.162Z,6.50
2022-10-04T22:16:30.986Z,6.40
2022-10-04T22:18:57.669Z,5.65
2022-10-04T22:21:24.273Z,6.20
2022-10-04T22:23:50.933Z,5.53
2022-10-04T22:26:19.997Z,6.03
2022-10-04T22:28:49.198Z,6.22
2022-10-04T22:31:19.377Z,5.63
2022-10-04T22:33:48.544Z,5.60
2022-10-04T22:36:20.654Z,5.90
2022-10-04T22:38:53.380Z,6.60
2022-10-04T22:41:20.309Z,5.28
2022-10-04T22:43:48.988Z,6.10
2022-10-04T22:46:19.386Z,5.22
2022-10-04T22:48:48.970Z,6.15
2022-10-04T22:51:15.634Z,5.38
2022-10-04T22:53:47.632Z,5.75
2022-10-04T22:56:15.206Z,6.40
2022-10-04T22:58:42.724Z,6.35
2022-10-04T23:01:15.486Z,5.40
2022-10-04T23:03:46.604Z,6.05
2022-10-04T23:06:14.396Z,5.70
2022-10-04T23:08:44.945Z,5.65
2022-10-04T23:11:12.120Z,5.93
2022-10-04T23:13:38.891Z,5.90
2022-10-04T23:16:20.940Z,5.95
2022-10-04T23:18:47.953Z,5.72
2022-10-04T23:21:26.179Z,6.10
2022-10-04T23:23:53.542Z,6.13
2022-10-04T23:26:23.624Z,5.22
2022-10-04T23:28:52.928Z,6.40
2022-10-04T23:31:23.712Z,6.05
2022-10-04T23:33:55.955Z,6.40
2022-10-04T23:36:22.885Z,5.85
2022-10-04T23:38:54.184Z,5.93
2022-10-04T23:41:20.929Z,6.15
2022-10-04T23:43:49.085Z,7.03
2022-10-04T23:46:19.580Z,6.03
2022-10-04T23:48:47.128Z,5.22
2022-10-04T23:51:17.430Z,5.45
2022-10-04T23:53:46.375Z,6.30
2022-10-04T23:56:29.167Z,6.13
2022-10-04T23:58:58.513Z,6.03
